EGBB

Birmingham International Airport

Birmingham, United Kingdom
METAR EGBB 151850Z 32015KT CAVOK 03/01 Q1008
Observed Flight Rules
Dec-15 @ 18:50 UTC (43 minutes ago) Visual Flight Rules
Wind Visibility Clouds
320° at 15 knots 10,000+ meters
  • Clear skies
Temperatures Readings
Current 3°C / 37°F
Dewpoint 1°C / 34°F
Humidity 87%
Altimeter 29.76" Hg
Pressure 1008 hPa
Elevation 99
METAR EGBB 151850Z 32015KT CAVOK 03/01 Q1008
Observed Flight Rules
Dec-15 @ 18:50 UTC
(43 minutes ago)
VFR
Wind Visibility
320° at 15 knots 10,000+ meters
Clouds
  • Clear skies
Temperature Dewpoint
3°C / 37°F 1°C / 34°F
Humidity Altimeter Pressure
87% 29.76" Hg 1008 hPa